createdAt,value
2018-10-17T00:02:20.564Z,11.40
2018-10-17T00:04:49.519Z,12.07
2018-10-17T00:07:18.405Z,11.00
2018-10-17T00:09:47.104Z,11.90
2018-10-17T00:12:15.870Z,12.23
2018-10-17T00:14:44.446Z,15.10
2018-10-17T00:17:13.253Z,12.20
2018-10-17T00:19:41.707Z,14.27
2018-10-17T00:22:10.319Z,13.53
2018-10-17T00:24:39.162Z,12.03
2018-10-17T00:27:07.926Z,15.17
2018-10-17T00:29:36.778Z,11.57
2018-10-17T00:32:05.692Z,12.47
2018-10-17T00:34:34.230Z,14.90
2018-10-17T00:37:02.818Z,10.97
2018-10-17T00:39:31.324Z,12.10
2018-10-17T00:41:59.908Z,13.73
2018-10-17T00:44:28.665Z,14.00
2018-10-17T00:46:57.381Z,12.33
2018-10-17T00:49:25.772Z,11.20
2018-10-17T00:51:54.649Z,12.00
2018-10-17T00:54:23.151Z,11.63
2018-10-17T00:56:51.772Z,12.20
2018-10-17T00:59:20.277Z,11.90
2018-10-17T01:01:48.807Z,12.40
2018-10-17T01:04:17.345Z,12.33
2018-10-17T01:06:46.180Z,11.13
2018-10-17T01:09:15.452Z,13.07
2018-10-17T01:11:44.099Z,16.80
2018-10-17T01:14:12.631Z,14.17
2018-10-17T01:16:41.172Z,12.03
2018-10-17T01:19:09.790Z,13.50
2018-10-17T01:21:38.775Z,11.20
2018-10-17T01:24:07.437Z,11.07
2018-10-17T01:26:36.215Z,12.53
2018-10-17T01:29:05.221Z,10.47
2018-10-17T01:31:33.847Z,10.57
2018-10-17T01:34:02.497Z,11.10
2018-10-17T01:36:31.041Z,9.63
2018-10-17T01:38:59.534Z,13.17
2018-10-17T01:41:28.241Z,10.70
2018-10-17T01:43:56.784Z,10.13
2018-10-17T01:46:25.449Z,10.80
2018-10-17T01:48:54.325Z,12.00
2018-10-17T01:51:22.961Z,13.57
2018-10-17T01:53:51.763Z,11.53
2018-10-17T01:56:20.321Z,12.00
2018-10-17T01:58:48.879Z,11.20
2018-10-17T02:01:17.395Z,11.07
2018-10-17T02:03:46.037Z,12.83
2018-10-17T02:06:14.534Z,11.07
2018-10-17T02:08:43.172Z,11.70
2018-10-17T02:11:11.801Z,10.23
2018-10-17T02:13:40.300Z,15.13
2018-10-17T02:16:08.820Z,12.23
2018-10-17T02:18:37.307Z,11.83
2018-10-17T02:21:06.372Z,17.40
2018-10-17T02:23:34.904Z,10.17
2018-10-17T02:26:03.447Z,9.20
2018-10-17T02:28:32.051Z,9.87
2018-10-17T02:31:00.713Z,11.67
2018-10-17T02:33:29.140Z,12.33
2018-10-17T02:35:57.796Z,10.30
2018-10-17T02:38:26.487Z,12.10
2018-10-17T02:40:55.191Z,9.00
2018-10-17T02:43:23.666Z,11.50
2018-10-17T02:45:52.368Z,12.27
2018-10-17T02:48:20.875Z,8.63
2018-10-17T02:50:49.803Z,9.40
2018-10-17T02:53:18.462Z,13.23
2018-10-17T02:55:47.004Z,11.13
2018-10-17T02:58:15.549Z,10.83
2018-10-17T03:00:44.176Z,10.07
2018-10-17T03:03:12.672Z,8.73
2018-10-17T03:05:41.151Z,9.23
2018-10-17T03:08:09.638Z,8.87
2018-10-17T03:10:38.419Z,10.83
2018-10-17T03:13:07.140Z,10.17
2018-10-17T03:15:36.017Z,10.50
2018-10-17T03:18:04.737Z,9.53
2018-10-17T03:20:33.271Z,13.20
2018-10-17T03:23:01.861Z,16.17
2018-10-17T03:25:30.621Z,16.47
2018-10-17T03:27:59.283Z,13.77
2018-10-17T03:30:28.024Z,11.83
2018-10-17T03:32:56.524Z,10.70
2018-10-17T03:35:25.028Z,13.67
2018-10-17T03:37:53.684Z,11.83
2018-10-17T03:40:22.276Z,13.97
2018-10-17T03:42:50.999Z,10.27
2018-10-17T03:45:19.547Z,10.10
2018-10-17T03:47:48.134Z,12.63
2018-10-17T03:50:16.698Z,11.30
2018-10-17T03:52:45.312Z,12.07
2018-10-17T03:55:14.084Z,10.93
2018-10-17T03:57:42.540Z,12.47
2018-10-17T04:00:11.375Z,13.00
2018-10-17T04:02:40.003Z,10.53
2018-10-17T04:05:08.858Z,11.23
2018-10-17T04:07:37.392Z,10.93
2018-10-17T04:10:06.352Z,10.73
2018-10-17T04:12:35.058Z,12.43
2018-10-17T04:15:03.572Z,11.87
2018-10-17T04:17:32.081Z,13.70
2018-10-17T04:20:00.623Z,12.20
2018-10-17T04:22:29.200Z,12.27
2018-10-17T04:24:57.943Z,11.13
2018-10-17T04:27:26.684Z,11.50
2018-10-17T04:29:55.209Z,11.33
2018-10-17T04:32:23.734Z,11.90
2018-10-17T04:34:52.385Z,12.33
2018-10-17T04:37:20.842Z,11.50
2018-10-17T04:39:49.343Z,11.47
2018-10-17T04:42:18.056Z,9.67
2018-10-17T04:44:46.546Z,11.73
2018-10-17T04:47:15.203Z,13.97
2018-10-17T04:49:43.652Z,12.97
2018-10-17T04:52:12.272Z,17.00
2018-10-17T04:54:41.083Z,9.53
2018-10-17T04:57:10.167Z,11.13
2018-10-17T04:59:38.713Z,9.37
2018-10-17T05:02:07.292Z,13.30
2018-10-17T05:04:36.084Z,9.83
2018-10-17T05:07:04.572Z,11.67
2018-10-17T05:09:33.463Z,12.23
2018-10-17T05:12:02.245Z,11.23
2018-10-17T05:14:30.720Z,11.73
2018-10-17T05:16:59.327Z,9.53
2018-10-17T05:19:27.875Z,10.30
2018-10-17T05:21:56.427Z,15.10
2018-10-17T05:24:25.116Z,12.17
2018-10-17T05:26:53.673Z,10.07
2018-10-17T05:29:22.232Z,14.13
2018-10-17T05:31:50.702Z,11.87
2018-10-17T05:34:19.313Z,10.67
2018-10-17T05:36:47.965Z,8.80
2018-10-17T05:39:16.904Z,12.57
2018-10-17T05:41:45.592Z,15.57
2018-10-17T05:44:14.246Z,12.43
2018-10-17T05:46:42.875Z,10.87
2018-10-17T05:49:11.511Z,12.63
2018-10-17T05:51:40.438Z,10.23
2018-10-17T05:54:08.948Z,17.43
2018-10-17T05:56:37.640Z,13.70
2018-10-17T05:59:06.383Z,12.50
2018-10-17T06:01:35.462Z,10.97
2018-10-17T06:04:03.879Z,15.87
2018-10-17T06:06:32.521Z,20.13
2018-10-17T06:09:01.244Z,17.73
2018-10-17T06:11:29.879Z,16.37
2018-10-17T06:13:58.723Z,19.40
2018-10-17T06:16:27.452Z,16.33
2018-10-17T06:18:56.170Z,12.43
2018-10-17T06:21:24.720Z,12.73
2018-10-17T06:23:53.337Z,15.23
2018-10-17T06:26:22.272Z,15.47
2018-10-17T06:28:51.290Z,16.70
2018-10-17T06:31:19.867Z,14.73
2018-10-17T06:33:48.435Z,11.67
2018-10-17T06:36:17.219Z,13.60
2018-10-17T06:38:45.756Z,79.37
2018-10-17T06:41:14.503Z,62.73
2018-10-17T06:43:43.320Z,40.03
2018-10-17T06:46:12.120Z,48.77
2018-10-17T06:48:41.011Z,38.37
2018-10-17T06:51:09.836Z,28.60
2018-10-17T06:53:38.690Z,21.30
2018-10-17T06:56:08.010Z,14.43
2018-10-17T06:58:36.560Z,27.30
2018-10-17T07:01:05.310Z,19.47
2018-10-17T07:03:33.784Z,17.73
2018-10-17T07:06:02.667Z,18.57
2018-10-17T07:08:31.245Z,13.20
2018-10-17T07:10:59.989Z,14.27
2018-10-17T07:13:28.548Z,17.00
2018-10-17T07:15:57.376Z,11.57
2018-10-17T07:18:26.022Z,13.53
2018-10-17T07:20:54.947Z,14.00
2018-10-17T07:23:23.557Z,20.00
2018-10-17T07:25:52.531Z,21.30
2018-10-17T07:28:21.172Z,14.30
2018-10-17T07:30:49.966Z,12.80
2018-10-17T07:33:18.471Z,12.73
2018-10-17T07:35:47.187Z,20.40
2018-10-17T07:38:15.768Z,15.83
2018-10-17T07:40:44.346Z,17.20
2018-10-17T07:43:13.140Z,16.37
2018-10-17T07:45:42.239Z,15.73
2018-10-17T07:48:10.934Z,19.10
2018-10-17T07:50:39.468Z,14.77
2018-10-17T07:53:08.067Z,16.07
2018-10-17T07:55:37.020Z,16.43
2018-10-17T07:58:05.915Z,21.93
2018-10-17T08:00:34.471Z,13.87
2018-10-17T08:03:03.187Z,16.97
2018-10-17T08:05:31.938Z,14.37
2018-10-17T08:08:00.553Z,17.53
2018-10-17T08:10:29.198Z,13.70
2018-10-17T08:12:57.934Z,16.43
2018-10-17T08:15:26.591Z,20.20
2018-10-17T08:17:55.384Z,21.00
2018-10-17T08:20:24.047Z,14.17
2018-10-17T08:22:52.798Z,16.70
2018-10-17T08:25:21.642Z,16.50
2018-10-17T08:27:50.741Z,14.40
2018-10-17T08:30:19.762Z,15.20
2018-10-17T08:32:48.734Z,13.00
2018-10-17T08:35:17.514Z,16.00
2018-10-17T08:37:47.016Z,13.27
2018-10-17T08:40:15.208Z,12.37
2018-10-17T08:42:44.109Z,17.40
2018-10-17T08:45:12.933Z,14.20
2018-10-17T08:47:41.578Z,15.23
2018-10-17T08:50:10.841Z,15.37
2018-10-17T08:52:39.314Z,18.30
2018-10-17T08:55:08.293Z,13.23
2018-10-17T08:57:37.070Z,18.00
2018-10-17T09:00:06.519Z,10.83
2018-10-17T09:02:35.227Z,14.97
2018-10-17T09:05:04.405Z,10.93
2018-10-17T09:07:33.202Z,11.03
2018-10-17T09:10:01.943Z,10.93
2018-10-17T09:12:31.174Z,11.97
2018-10-17T09:14:59.919Z,11.13
2018-10-17T09:17:28.700Z,11.30
2018-10-17T09:19:58.132Z,12.87
2018-10-17T09:22:26.935Z,9.60
2018-10-17T09:24:55.334Z,12.07
2018-10-17T09:27:23.933Z,12.97
2018-10-17T09:29:52.897Z,9.17
2018-10-17T09:32:22.102Z,10.30
2018-10-17T09:34:50.728Z,9.58
2018-10-17T09:37:19.413Z,11.38
2018-10-17T09:39:48.038Z,12.68
2018-10-17T09:42:17.075Z,12.10
2018-10-17T09:44:46.277Z,7.45
2018-10-17T09:47:16.402Z,8.35
2018-10-17T09:49:45.436Z,7.97
2018-10-17T09:52:17.435Z,10.13
2018-10-17T09:54:46.085Z,9.23
2018-10-17T09:57:14.700Z,9.78
2018-10-17T09:59:43.366Z,8.33
2018-10-17T10:02:12.434Z,7.53
2018-10-17T10:04:41.113Z,10.15
2018-10-17T10:07:10.209Z,11.28
2018-10-17T10:09:38.873Z,10.23
2018-10-17T10:12:07.724Z,8.43
2018-10-17T10:14:36.628Z,8.00
2018-10-17T10:17:05.653Z,8.13
2018-10-17T10:19:34.449Z,5.47
2018-10-17T10:22:03.767Z,11.40
2018-10-17T10:24:32.800Z,6.20
2018-10-17T10:27:02.716Z,7.25
2018-10-17T10:29:31.550Z,8.30
2018-10-17T10:32:00.342Z,6.12
2018-10-17T10:34:29.369Z,7.65
2018-10-17T10:36:58.170Z,6.53
2018-10-17T10:39:26.724Z,6.67
2018-10-17T10:41:55.323Z,8.50
2018-10-17T10:44:24.074Z,6.45
2018-10-17T10:46:52.844Z,6.55
2018-10-17T10:49:21.876Z,5.58
2018-10-17T10:51:50.562Z,5.35
2018-10-17T10:54:19.388Z,7.40
2018-10-17T10:56:49.258Z,8.95
2018-10-17T10:59:18.120Z,7.85
2018-10-17T11:01:46.588Z,9.00
2018-10-17T11:04:15.269Z,5.50
2018-10-17T11:06:43.889Z,7.45
2018-10-17T11:09:12.565Z,8.83
2018-10-17T11:11:41.503Z,5.33
2018-10-17T11:14:10.353Z,5.33
2018-10-17T11:16:39.031Z,7.20
2018-10-17T11:19:07.820Z,4.95
2018-10-17T11:21:36.640Z,8.35
2018-10-17T11:24:05.577Z,13.65
2018-10-17T11:26:34.468Z,5.33
2018-10-17T11:29:03.045Z,11.50
2018-10-17T11:31:31.631Z,6.53
2018-10-17T11:34:00.310Z,7.45
2018-10-17T11:36:28.900Z,5.95
2018-10-17T11:38:57.445Z,5.40
2018-10-17T11:41:26.275Z,5.62
2018-10-17T11:43:54.972Z,3.65
2018-10-17T11:46:23.983Z,3.83
2018-10-17T11:48:52.561Z,7.42
2018-10-17T11:51:21.074Z,5.58
2018-10-17T11:53:50.085Z,3.50
2018-10-17T11:56:18.645Z,7.12
2018-10-17T11:58:52.368Z,3.50
2018-10-17T12:01:20.980Z,5.05
2018-10-17T12:03:49.977Z,7.65
2018-10-17T12:06:18.955Z,5.50
2018-10-17T12:08:47.577Z,4.85
2018-10-17T12:11:16.379Z,4.20
2018-10-17T12:13:45.041Z,7.00
2018-10-17T12:16:13.906Z,4.90
2018-10-17T12:18:42.624Z,5.85
2018-10-17T12:21:11.814Z,5.70
2018-10-17T12:23:40.276Z,4.58
2018-10-17T12:26:08.888Z,5.58
2018-10-17T12:28:37.651Z,5.17
2018-10-17T12:31:06.789Z,5.75
2018-10-17T12:33:35.954Z,4.00
2018-10-17T12:36:05.083Z,5.10
2018-10-17T12:38:34.235Z,3.35
2018-10-17T12:41:03.490Z,4.28
2018-10-17T12:43:32.545Z,5.70
2018-10-17T12:46:01.442Z,6.00
2018-10-17T12:48:29.993Z,7.85
2018-10-17T12:50:58.822Z,5.45
2018-10-17T12:53:27.732Z,4.12
2018-10-17T12:55:56.684Z,4.20
2018-10-17T12:58:25.632Z,5.30
2018-10-17T13:00:54.931Z,4.83
2018-10-17T13:03:23.431Z,4.67
2018-10-17T13:05:52.427Z,7.00
2018-10-17T13:08:21.371Z,6.70
2018-10-17T13:10:50.166Z,5.42
2018-10-17T13:13:19.031Z,4.83
2018-10-17T13:15:47.590Z,4.47
2018-10-17T13:18:16.684Z,4.08
2018-10-17T13:20:45.751Z,3.83
2018-10-17T13:23:14.532Z,6.08
2018-10-17T13:25:42.940Z,4.33
2018-10-17T13:28:11.560Z,4.00
2018-10-17T13:30:40.213Z,4.37
2018-10-17T13:33:09.092Z,5.37
2018-10-17T13:35:38.165Z,5.53
2018-10-17T13:38:07.125Z,5.37
2018-10-17T13:40:35.734Z,5.45
2018-10-17T13:43:04.528Z,3.80
2018-10-17T13:45:33.125Z,3.37
2018-10-17T13:48:02.101Z,6.10
2018-10-17T13:50:30.836Z,3.70
2018-10-17T13:53:00.037Z,4.47
2018-10-17T13:55:29.301Z,3.55
2018-10-17T13:57:58.011Z,5.12
2018-10-17T14:00:26.891Z,5.60
2018-10-17T14:02:55.697Z,3.12
2018-10-17T14:05:24.830Z,5.28
2018-10-17T14:07:53.680Z,7.95
2018-10-17T14:10:22.648Z,8.35
2018-10-17T14:12:51.642Z,9.75
2018-10-17T14:15:20.525Z,6.03
2018-10-17T14:17:49.181Z,4.78
2018-10-17T14:20:18.054Z,8.75
2018-10-17T14:22:46.848Z,5.08
2018-10-17T14:25:15.851Z,5.90
2018-10-17T14:27:44.557Z,6.03
2018-10-17T14:30:13.386Z,9.00
2018-10-17T14:32:42.365Z,5.62
2018-10-17T14:35:12.909Z,5.75
2018-10-17T14:37:42.256Z,9.75
2018-10-17T14:40:10.971Z,6.92
2018-10-17T14:42:39.857Z,9.38
2018-10-17T14:45:10.016Z,7.62
2018-10-17T14:47:38.850Z,8.13
2018-10-17T14:50:07.534Z,9.70
2018-10-17T14:52:36.295Z,7.33
2018-10-17T14:55:05.086Z,4.15
2018-10-17T14:57:33.797Z,7.37
2018-10-17T15:00:02.744Z,7.47
2018-10-17T15:02:31.780Z,7.05
2018-10-17T15:05:00.678Z,8.58
2018-10-17T15:07:29.714Z,6.65
2018-10-17T15:09:58.870Z,7.05
2018-10-17T15:12:27.562Z,8.40
2018-10-17T15:14:56.521Z,7.62
2018-10-17T15:17:25.320Z,10.28
2018-10-17T15:19:54.136Z,11.08
2018-10-17T15:22:22.713Z,7.40
2018-10-17T15:24:51.636Z,7.05
2018-10-17T15:27:20.497Z,7.62
2018-10-17T15:29:49.215Z,8.83
2018-10-17T15:32:18.174Z,7.58
2018-10-17T15:34:47.194Z,7.58
2018-10-17T15:37:16.108Z,10.72
2018-10-17T15:39:48.876Z,8.20
2018-10-17T15:42:17.882Z,9.60
2018-10-17T15:44:46.795Z,7.62
2018-10-17T15:47:15.783Z,7.72
2018-10-17T15:49:44.756Z,8.37
2018-10-17T15:52:13.874Z,13.80
2018-10-17T15:54:42.690Z,8.57
2018-10-17T15:57:11.575Z,12.43
2018-10-17T15:59:40.464Z,8.10
2018-10-17T16:02:09.336Z,12.33
2018-10-17T16:04:38.125Z,14.07
2018-10-17T16:07:07.003Z,8.57
2018-10-17T16:09:35.647Z,9.37
2018-10-17T16:12:04.589Z,9.17
2018-10-17T16:14:33.271Z,6.53
2018-10-17T16:17:02.231Z,9.40
2018-10-17T16:19:31.002Z,7.80
2018-10-17T16:21:59.818Z,8.40
2018-10-17T16:24:28.959Z,8.50
2018-10-17T16:26:58.018Z,19.60
2018-10-17T16:29:26.851Z,18.50
2018-10-17T16:31:55.843Z,15.10
2018-10-17T16:34:24.371Z,11.57
2018-10-17T16:36:53.011Z,11.53
2018-10-17T16:39:21.766Z,10.73
2018-10-17T16:41:50.923Z,7.27
2018-10-17T16:44:20.047Z,7.37
2018-10-17T16:46:48.857Z,12.53
2018-10-17T16:49:17.770Z,12.47
2018-10-17T16:51:46.605Z,10.47
2018-10-17T16:54:15.414Z,13.20
2018-10-17T16:56:44.294Z,8.73
2018-10-17T16:59:13.006Z,14.17
2018-10-17T17:01:41.923Z,8.97
2018-10-17T17:04:10.891Z,9.83
2018-10-17T17:06:39.898Z,12.37
2018-10-17T17:09:10.116Z,8.47
2018-10-17T17:11:38.954Z,11.13
2018-10-17T17:14:07.977Z,12.67
2018-10-17T17:16:37.017Z,15.73
2018-10-17T17:19:05.789Z,9.77
2018-10-17T17:21:34.879Z,13.27
2018-10-17T17:24:04.008Z,10.30
2018-10-17T17:26:33.326Z,11.93
2018-10-17T17:29:02.654Z,9.27
2018-10-17T17:31:31.764Z,14.50
2018-10-17T17:34:01.021Z,9.67
2018-10-17T17:36:30.130Z,17.63
2018-10-17T17:38:59.081Z,10.43
2018-10-17T17:41:28.222Z,10.43
2018-10-17T17:43:57.373Z,11.83
2018-10-17T17:46:26.759Z,17.50
2018-10-17T17:48:55.939Z,13.27
2018-10-17T17:51:25.203Z,12.60
2018-10-17T17:53:54.342Z,11.70
2018-10-17T17:56:23.433Z,8.87
2018-10-17T17:58:52.550Z,13.13
2018-10-17T18:01:21.348Z,10.30
2018-10-17T18:03:50.544Z,12.47
2018-10-17T18:06:19.992Z,16.90
2018-10-17T18:08:49.113Z,9.07
2018-10-17T18:11:22.629Z,14.60
2018-10-17T18:13:52.159Z,9.27
2018-10-17T18:16:20.890Z,13.07
2018-10-17T18:18:49.875Z,14.20
2018-10-17T18:21:18.757Z,12.70
2018-10-17T18:23:47.777Z,12.33
2018-10-17T18:26:16.383Z,11.23
2018-10-17T18:28:45.356Z,23.60
2018-10-17T18:31:14.318Z,16.37
2018-10-17T18:33:43.311Z,12.87
2018-10-17T18:36:12.040Z,20.27
2018-10-17T18:38:40.793Z,17.33
2018-10-17T18:41:09.598Z,14.67
2018-10-17T18:43:38.573Z,10.47
2018-10-17T18:46:07.454Z,12.33
2018-10-17T18:48:36.301Z,14.77
2018-10-17T18:51:05.487Z,13.20
2018-10-17T18:53:34.858Z,12.93
2018-10-17T18:56:03.966Z,16.97
2018-10-17T18:58:32.861Z,14.53
2018-10-17T19:01:01.863Z,15.00
2018-10-17T19:03:30.939Z,12.77
2018-10-17T19:05:59.840Z,16.07
2018-10-17T19:08:28.938Z,50.53
2018-10-17T19:10:57.865Z,22.90
2018-10-17T19:13:26.780Z,22.33
2018-10-17T19:15:55.566Z,18.80
2018-10-17T19:18:24.631Z,15.13
2018-10-17T19:20:59.833Z,18.50
2018-10-17T19:23:28.757Z,13.13
2018-10-17T19:25:57.750Z,13.80
2018-10-17T19:28:26.723Z,14.63
2018-10-17T19:30:55.702Z,13.53
2018-10-17T19:33:24.837Z,15.73
2018-10-17T19:35:53.467Z,15.20
2018-10-17T19:38:22.568Z,14.47
2018-10-17T19:40:51.488Z,15.87
2018-10-17T19:43:20.455Z,15.83
2018-10-17T19:45:49.129Z,12.23
2018-10-17T19:48:18.027Z,12.03
2018-10-17T19:50:46.706Z,12.67
2018-10-17T19:53:15.504Z,13.23
2018-10-17T19:55:44.306Z,18.57
2018-10-17T19:58:13.364Z,13.13
2018-10-17T20:00:41.988Z,14.90
2018-10-17T20:03:10.930Z,14.47
2018-10-17T20:05:39.614Z,14.80
2018-10-17T20:08:08.624Z,14.00
2018-10-17T20:10:37.476Z,12.93
2018-10-17T20:13:06.358Z,12.17
2018-10-17T20:15:35.225Z,11.57
2018-10-17T20:18:04.165Z,12.53
2018-10-17T20:20:33.079Z,12.17
2018-10-17T20:23:02.140Z,15.20
2018-10-17T20:25:31.013Z,15.27
2018-10-17T20:28:00.007Z,16.90
2018-10-17T20:30:28.932Z,14.33
2018-10-17T20:32:57.805Z,13.57
2018-10-17T20:35:26.748Z,12.80
2018-10-17T20:37:55.651Z,13.40
2018-10-17T20:40:24.839Z,15.53
2018-10-17T20:42:53.968Z,11.67
2018-10-17T20:45:22.799Z,16.83
2018-10-17T20:47:51.512Z,10.90
2018-10-17T20:50:20.365Z,12.73
2018-10-17T20:52:49.000Z,13.47
2018-10-17T20:55:17.821Z,14.10
2018-10-17T20:57:46.718Z,11.70
2018-10-17T21:00:15.514Z,14.23
2018-10-17T21:02:44.301Z,16.27
2018-10-17T21:05:13.229Z,15.93
2018-10-17T21:07:42.023Z,13.33
2018-10-17T21:10:11.050Z,13.00
2018-10-17T21:12:39.703Z,13.27
2018-10-17T21:15:09.339Z,15.07
2018-10-17T21:17:38.004Z,13.33
2018-10-17T21:20:08.099Z,12.83
2018-10-17T21:22:36.767Z,17.47
2018-10-17T21:25:05.779Z,12.53
2018-10-17T21:27:34.468Z,11.97
2018-10-17T21:30:03.236Z,13.80
2018-10-17T21:32:31.777Z,13.77
2018-10-17T21:35:00.424Z,12.23
2018-10-17T21:37:29.024Z,13.37
2018-10-17T21:39:57.632Z,16.60
2018-10-17T21:42:26.230Z,15.60
2018-10-17T21:44:54.877Z,14.73
2018-10-17T21:47:23.539Z,12.27
2018-10-17T21:49:52.350Z,12.43
2018-10-17T21:52:21.087Z,13.00
2018-10-17T21:54:49.764Z,12.60
2018-10-17T21:57:18.445Z,11.93
2018-10-17T21:59:47.066Z,13.53
2018-10-17T22:02:15.707Z,12.83
2018-10-17T22:04:44.724Z,16.03
2018-10-17T22:07:13.457Z,12.40
2018-10-17T22:09:42.137Z,14.70
2018-10-17T22:12:10.692Z,11.97
2018-10-17T22:14:39.253Z,16.40
2018-10-17T22:17:08.561Z,13.27
2018-10-17T22:19:38.360Z,13.20
2018-10-17T22:22:08.154Z,11.60
2018-10-17T22:24:36.798Z,13.13
2018-10-17T22:27:05.366Z,14.33
2018-10-17T22:29:34.060Z,13.70
2018-10-17T22:32:02.876Z,14.50
2018-10-17T22:34:31.529Z,15.83
2018-10-17T22:37:00.556Z,11.47
2018-10-17T22:39:29.389Z,12.43
2018-10-17T22:41:58.218Z,11.80
2018-10-17T22:44:27.023Z,13.73
2018-10-17T22:46:55.541Z,11.97
2018-10-17T22:49:24.283Z,11.60
2018-10-17T22:51:52.815Z,12.47
2018-10-17T22:54:21.377Z,11.40
2018-10-17T22:56:50.169Z,13.37
2018-10-17T22:59:18.708Z,12.73
2018-10-17T23:01:47.295Z,14.13
2018-10-17T23:04:15.885Z,11.37
2018-10-17T23:06:44.414Z,16.47
2018-10-17T23:09:14.768Z,13.23
2018-10-17T23:11:44.365Z,12.20
2018-10-17T23:14:13.037Z,10.50
2018-10-17T23:16:42.332Z,17.33
2018-10-17T23:19:11.795Z,11.73
2018-10-17T23:21:41.348Z,11.83
2018-10-17T23:24:09.960Z,13.20
2018-10-17T23:26:38.704Z,16.17
2018-10-17T23:29:07.393Z,13.60
2018-10-17T23:31:35.907Z,11.43
2018-10-17T23:34:04.714Z,17.27
2018-10-17T23:36:33.249Z,13.67
2018-10-17T23:39:02.211Z,13.73
2018-10-17T23:41:31.002Z,13.33
2018-10-17T23:43:59.553Z,13.03
2018-10-17T23:46:28.084Z,16.07
2018-10-17T23:48:56.856Z,13.73
2018-10-17T23:51:25.427Z,15.00
2018-10-17T23:53:54.108Z,15.10
2018-10-17T23:56:22.572Z,13.47
2018-10-17T23:58:51.172Z,12.03
